createdAt,value
2018-08-27T00:00:20.009Z,14.70
2018-08-27T00:02:47.566Z,14.80
2018-08-27T00:05:15.102Z,14.80
2018-08-27T00:07:43.584Z,14.80
2018-08-27T00:10:11.141Z,14.70
2018-08-27T00:12:38.675Z,14.60
2018-08-27T00:15:06.249Z,14.50
2018-08-27T00:17:33.784Z,14.40
2018-08-27T00:20:01.330Z,14.30
2018-08-27T00:22:28.893Z,14.30
2018-08-27T00:24:56.421Z,14.30
2018-08-27T00:27:24.976Z,14.20
2018-08-27T00:29:52.515Z,14.30
2018-08-27T00:32:20.077Z,14.40
2018-08-27T00:34:47.634Z,14.40
2018-08-27T00:37:16.148Z,14.40
2018-08-27T00:39:43.688Z,14.30
2018-08-27T00:42:11.249Z,14.30
2018-08-27T00:44:38.772Z,14.40
2018-08-27T00:47:07.097Z,14.40
2018-08-27T00:49:34.626Z,14.40
2018-08-27T00:52:02.193Z,14.40
2018-08-27T00:54:29.748Z,14.40
2018-08-27T00:56:57.289Z,14.40
2018-08-27T00:59:24.821Z,14.40
2018-08-27T01:01:52.388Z,14.30
2018-08-27T01:04:19.927Z,14.30
2018-08-27T01:06:47.489Z,14.40
2018-08-27T01:09:15.018Z,14.50
2018-08-27T01:11:42.582Z,14.60
2018-08-27T01:14:10.138Z,14.60
2018-08-27T01:16:37.666Z,14.70
2018-08-27T01:19:05.190Z,14.70
2018-08-27T01:21:32.759Z,14.70
2018-08-27T01:24:01.257Z,14.70
2018-08-27T01:26:28.818Z,14.70
2018-08-27T01:28:56.394Z,14.50
2018-08-27T01:31:23.933Z,14.50
2018-08-27T01:33:51.498Z,14.40
2018-08-27T01:36:19.029Z,14.40
2018-08-27T01:38:46.556Z,14.40
2018-08-27T01:41:16.041Z,14.40
2018-08-27T01:43:43.570Z,14.40
2018-08-27T01:46:11.135Z,14.50
2018-08-27T01:48:38.699Z,14.40
2018-08-27T01:51:06.239Z,14.40
2018-08-27T01:53:33.797Z,14.50
2018-08-27T01:56:01.330Z,14.60
2018-08-27T01:58:28.858Z,14.70
2018-08-27T02:00:57.185Z,14.70
2018-08-27T02:03:24.724Z,14.70
2018-08-27T02:05:52.286Z,14.70
2018-08-27T02:08:19.823Z,14.80
2018-08-27T02:10:47.385Z,14.70
2018-08-27T02:13:16.881Z,14.70
2018-08-27T02:15:44.404Z,14.70
2018-08-27T02:18:13.892Z,14.70
2018-08-27T02:20:41.448Z,14.70
2018-08-27T02:23:08.979Z,14.70
2018-08-27T02:25:36.547Z,14.60
2018-08-27T02:28:04.083Z,14.60
2018-08-27T02:30:31.647Z,14.60
2018-08-27T02:32:59.173Z,14.50
2018-08-27T02:35:26.709Z,14.50
2018-08-27T02:37:56.223Z,14.50
2018-08-27T02:40:23.762Z,14.50
2018-08-27T02:42:51.317Z,14.50
2018-08-27T02:45:18.844Z,14.50
2018-08-27T02:47:46.404Z,14.50
2018-08-27T02:50:13.945Z,14.50
2018-08-27T02:52:41.507Z,14.50
2018-08-27T02:55:09.066Z,14.50
2018-08-27T02:57:36.600Z,14.50
2018-08-27T03:00:04.153Z,14.50
2018-08-27T03:02:34.425Z,14.40
2018-08-27T03:05:01.953Z,14.30
2018-08-27T03:07:29.509Z,14.40
2018-08-27T03:09:57.048Z,14.30
2018-08-27T03:12:24.613Z,14.40
2018-08-27T03:14:52.144Z,14.30
2018-08-27T03:17:20.450Z,14.40
2018-08-27T03:19:48.007Z,14.40
2018-08-27T03:22:15.570Z,14.40
2018-08-27T03:24:43.141Z,14.40
2018-08-27T03:27:10.672Z,14.30
2018-08-27T03:29:38.281Z,14.30
2018-08-27T03:32:06.776Z,14.30
2018-08-27T03:34:34.336Z,14.30
2018-08-27T03:37:01.892Z,14.10
2018-08-27T03:39:29.445Z,14.20
2018-08-27T03:41:56.975Z,14.10
2018-08-27T03:44:24.529Z,14.10
2018-08-27T03:46:52.061Z,14.10
2018-08-27T03:49:19.609Z,14.10
2018-08-27T03:51:47.137Z,14.10
2018-08-27T03:54:14.661Z,14.00
2018-08-27T03:56:42.219Z,14.00
2018-08-27T03:59:10.705Z,14.00
2018-08-27T04:01:39.225Z,14.00
2018-08-27T04:04:06.760Z,14.00
2018-08-27T04:06:34.321Z,13.90
2018-08-27T04:09:02.804Z,13.90
2018-08-27T04:11:30.360Z,13.90
2018-08-27T04:13:57.913Z,13.90
2018-08-27T04:16:25.441Z,14.00
2018-08-27T04:18:53.001Z,14.00
2018-08-27T04:21:20.564Z,14.00
2018-08-27T04:23:48.093Z,13.90
2018-08-27T04:26:15.653Z,13.80
2018-08-27T04:28:43.256Z,13.80
2018-08-27T04:31:10.765Z,13.80
2018-08-27T04:33:38.306Z,13.60
2018-08-27T04:36:05.881Z,13.60
2018-08-27T04:38:33.429Z,13.60
2018-08-27T04:41:00.952Z,13.50
2018-08-27T04:43:30.457Z,13.50
2018-08-27T04:45:58.758Z,13.40
2018-08-27T04:48:26.325Z,13.40
2018-08-27T04:50:54.825Z,13.40
2018-08-27T04:53:24.333Z,13.40
2018-08-27T04:55:51.885Z,13.40
2018-08-27T04:58:19.446Z,13.40
2018-08-27T05:00:46.968Z,13.40
2018-08-27T05:03:14.518Z,13.40
2018-08-27T05:05:42.079Z,13.40
2018-08-27T05:08:09.637Z,13.30
2018-08-27T05:10:37.176Z,13.30
2018-08-27T05:13:04.737Z,13.40
2018-08-27T05:15:32.274Z,13.50
2018-08-27T05:17:59.833Z,13.50
2018-08-27T05:20:27.381Z,13.50
2018-08-27T05:22:54.914Z,13.60
2018-08-27T05:25:22.470Z,13.60
2018-08-27T05:27:50.014Z,13.70
2018-08-27T05:30:18.532Z,13.70
2018-08-27T05:32:46.056Z,13.70
2018-08-27T05:35:13.690Z,13.60
2018-08-27T05:37:41.241Z,13.60
2018-08-27T05:40:09.785Z,13.60
2018-08-27T05:42:37.314Z,13.60
2018-08-27T05:45:04.874Z,13.70
2018-08-27T05:47:32.458Z,13.70
2018-08-27T05:50:00.011Z,13.60
2018-08-27T05:52:27.553Z,13.70
2018-08-27T05:54:55.114Z,13.80
2018-08-27T05:57:22.645Z,13.80
2018-08-27T05:59:50.196Z,13.80
2018-08-27T06:02:18.696Z,13.90
2018-08-27T06:04:46.247Z,14.00
2018-08-27T06:07:13.813Z,14.10
2018-08-27T06:09:41.377Z,14.10
2018-08-27T06:12:08.917Z,14.30
2018-08-27T06:14:36.469Z,14.50
2018-08-27T06:17:04.006Z,14.50
2018-08-27T06:19:31.571Z,14.40
2018-08-27T06:21:59.203Z,14.50
2018-08-27T06:24:26.690Z,14.50
2018-08-27T06:26:54.243Z,14.60
2018-08-27T06:29:22.738Z,14.70
2018-08-27T06:31:50.296Z,14.70
2018-08-27T06:34:17.863Z,14.80
2018-08-27T06:36:45.402Z,15.00
2018-08-27T06:39:12.953Z,15.10
2018-08-27T06:41:40.504Z,15.20
2018-08-27T06:44:08.057Z,15.30
2018-08-27T06:46:35.597Z,15.50
2018-08-27T06:49:03.437Z,15.60
2018-08-27T06:51:31.000Z,15.70
2018-08-27T06:53:58.567Z,15.80
2018-08-27T06:56:26.096Z,15.90
2018-08-27T06:58:53.649Z,16.10
2018-08-27T07:01:21.181Z,15.90
2018-08-27T07:03:48.742Z,16.10
2018-08-27T07:06:16.296Z,16.10
2018-08-27T07:08:43.848Z,16.00
2018-08-27T07:11:11.383Z,16.10
2018-08-27T07:13:38.949Z,16.20
2018-08-27T07:16:06.484Z,16.20
2018-08-27T07:18:35.791Z,16.20
2018-08-27T07:21:04.092Z,16.40
2018-08-27T07:23:31.650Z,16.40
2018-08-27T07:25:59.179Z,16.50
2018-08-27T07:28:26.712Z,16.70
2018-08-27T07:30:55.265Z,16.90
2018-08-27T07:33:22.805Z,17.10
2018-08-27T07:35:50.365Z,17.30
2018-08-27T07:38:18.862Z,17.50
2018-08-27T07:40:46.417Z,17.70
2018-08-27T07:43:13.952Z,17.80
2018-08-27T07:45:41.485Z,18.10
2018-08-27T07:48:09.046Z,18.30
2018-08-27T07:50:37.578Z,18.50
2018-08-27T07:53:07.087Z,18.90
2018-08-27T07:55:34.632Z,19.10
2018-08-27T07:58:02.200Z,19.30
2018-08-27T08:00:29.765Z,19.30
2018-08-27T08:02:57.302Z,19.30
2018-08-27T08:05:24.877Z,19.30
2018-08-27T08:07:52.441Z,19.50
2018-08-27T08:10:19.969Z,19.50
2018-08-27T08:12:47.548Z,19.50
2018-08-27T08:15:15.105Z,19.60
2018-08-27T08:17:42.662Z,19.60
2018-08-27T08:20:13.674Z,19.60
2018-08-27T08:22:50.456Z,19.70
2018-08-27T08:25:27.448Z,19.80
2018-08-27T08:27:55.810Z,20.20
2018-08-27T08:30:28.042Z,20.10
2018-08-27T08:32:55.598Z,20.30
2018-08-27T08:35:23.160Z,20.20
2018-08-27T08:37:50.697Z,20.30
2018-08-27T08:40:19.037Z,20.70
2018-08-27T08:42:47.540Z,20.70
2018-08-27T08:45:15.082Z,20.80
2018-08-27T08:47:42.644Z,20.90
2018-08-27T08:50:10.209Z,21.10
2018-08-27T08:52:37.744Z,21.30
2018-08-27T08:55:07.248Z,21.40
2018-08-27T08:57:35.586Z,21.40
2018-08-27T09:00:03.155Z,21.40
2018-08-27T09:02:30.693Z,21.50
2018-08-27T09:04:58.253Z,21.50
2018-08-27T09:07:26.762Z,21.60
2018-08-27T09:09:54.323Z,21.80
2018-08-27T09:12:21.918Z,21.80
2018-08-27T09:14:49.494Z,22.10
2018-08-27T09:17:17.149Z,22.20
2018-08-27T09:19:44.636Z,22.10
2018-08-27T09:22:13.123Z,22.20
2018-08-27T09:24:40.734Z,22.20
2018-08-27T09:27:08.265Z,22.20
2018-08-27T09:29:37.766Z,22.20
2018-08-27T09:32:05.341Z,22.10
2018-08-27T09:34:33.673Z,22.00
2018-08-27T09:37:01.293Z,22.00
2018-08-27T09:39:28.757Z,22.20
2018-08-27T09:41:56.330Z,22.30
2018-08-27T09:44:23.856Z,22.40
2018-08-27T09:46:51.518Z,22.80
2018-08-27T09:49:25.515Z,23.10
2018-08-27T09:51:53.836Z,23.40
2018-08-27T09:54:21.361Z,23.40
2018-08-27T09:56:48.890Z,23.60
2018-08-27T09:59:17.248Z,24.10
2018-08-27T10:01:44.806Z,24.10
2018-08-27T10:04:12.366Z,24.40
2018-08-27T10:06:39.909Z,24.50
2018-08-27T10:09:07.568Z,24.60
2018-08-27T10:11:35.029Z,24.70
2018-08-27T10:14:02.601Z,24.50
2018-08-27T10:16:30.162Z,24.60
2018-08-27T10:18:57.724Z,24.40
2018-08-27T10:21:26.025Z,24.00
2018-08-27T10:23:53.591Z,24.00
2018-08-27T10:26:21.154Z,23.90
2018-08-27T10:28:48.718Z,23.80
2018-08-27T10:31:16.244Z,23.60
2018-08-27T10:33:44.538Z,23.20
2018-08-27T10:36:14.041Z,23.20
2018-08-27T10:38:41.576Z,23.40
2018-08-27T10:41:09.140Z,23.50
2018-08-27T10:43:36.674Z,23.70
2018-08-27T10:46:04.235Z,23.50
2018-08-27T10:48:31.773Z,23.30
2018-08-27T10:50:59.344Z,23.50
2018-08-27T10:53:27.666Z,23.60
2018-08-27T10:55:55.193Z,23.60
2018-08-27T10:58:22.825Z,23.80
2018-08-27T11:00:50.319Z,23.80
2018-08-27T11:03:17.873Z,23.90
2018-08-27T11:05:45.448Z,23.90
2018-08-27T11:08:13.141Z,23.80
2018-08-27T11:10:40.921Z,24.00
2018-08-27T11:13:08.477Z,24.10
2018-08-27T11:15:36.087Z,24.30
2018-08-27T11:18:03.730Z,24.40
2018-08-27T11:20:31.799Z,24.40
2018-08-27T11:22:59.289Z,24.40
2018-08-27T11:25:26.916Z,24.60
2018-08-27T11:27:55.474Z,24.80
2018-08-27T11:30:24.616Z,24.90
2018-08-27T11:32:53.123Z,24.70
2018-08-27T11:35:20.710Z,24.90
2018-08-27T11:37:48.277Z,24.90
2018-08-27T11:40:16.675Z,25.20
2018-08-27T11:42:45.073Z,25.20
2018-08-27T11:45:14.902Z,25.30
2018-08-27T11:47:42.573Z,25.40
2018-08-27T11:50:12.378Z,25.40
2018-08-27T11:52:39.825Z,25.20
2018-08-27T11:55:10.618Z,25.00
2018-08-27T11:57:38.214Z,25.00
2018-08-27T12:00:05.910Z,25.20
2018-08-27T12:02:33.609Z,25.20
2018-08-27T12:05:08.016Z,25.20
2018-08-27T12:07:36.951Z,25.30
2018-08-27T12:10:08.073Z,25.40
2018-08-27T12:12:35.661Z,25.80
2018-08-27T12:15:05.085Z,25.60
2018-08-27T12:17:33.105Z,25.60
2018-08-27T12:20:00.677Z,25.60
2018-08-27T12:22:28.242Z,26.00
2018-08-27T12:24:58.561Z,25.90
2018-08-27T12:27:26.674Z,25.90
2018-08-27T12:29:55.241Z,26.00
2018-08-27T12:32:22.830Z,26.30
2018-08-27T12:34:50.532Z,26.30
2018-08-27T12:37:18.090Z,26.80
2018-08-27T12:39:47.586Z,26.70
2018-08-27T12:42:15.258Z,26.80
2018-08-27T12:44:43.639Z,26.60
2018-08-27T12:47:12.915Z,26.80
2018-08-27T12:49:40.462Z,26.80
2018-08-27T12:52:08.057Z,26.50
2018-08-27T12:54:35.650Z,26.40
2018-08-27T12:57:05.409Z,26.40
2018-08-27T12:59:34.013Z,26.60
2018-08-27T13:02:01.628Z,26.90
2018-08-27T13:04:29.193Z,27.40
2018-08-27T13:06:56.734Z,27.30
2018-08-27T13:09:25.511Z,27.10
2018-08-27T13:11:54.061Z,27.30
2018-08-27T13:14:21.705Z,27.30
2018-08-27T13:16:50.323Z,27.30
2018-08-27T13:19:19.830Z,27.10
2018-08-27T13:21:47.372Z,27.10
2018-08-27T13:24:18.895Z,27.10
2018-08-27T13:26:46.555Z,27.20
2018-08-27T13:29:14.617Z,27.30
2018-08-27T13:31:42.384Z,27.60
2018-08-27T13:34:09.824Z,28.00
2018-08-27T13:36:37.436Z,28.40
2018-08-27T13:39:05.256Z,27.80
2018-08-27T13:41:33.206Z,28.00
2018-08-27T13:44:01.543Z,27.70
2018-08-27T13:46:32.922Z,27.70
2018-08-27T13:49:00.474Z,27.60
2018-08-27T13:51:28.094Z,27.50
2018-08-27T13:53:55.650Z,27.50
2018-08-27T13:56:23.237Z,27.80
2018-08-27T13:58:50.833Z,28.10
2018-08-27T14:01:18.431Z,28.10
2018-08-27T14:03:47.591Z,28.00
2018-08-27T14:06:15.163Z,28.50
2018-08-27T14:08:42.748Z,29.30
2018-08-27T14:11:10.319Z,29.80
2018-08-27T14:13:37.913Z,29.90
2018-08-27T14:16:05.560Z,29.60
2018-08-27T14:18:34.888Z,28.90
2018-08-27T14:21:02.445Z,28.90
2018-08-27T14:23:30.950Z,29.00
2018-08-27T14:25:58.653Z,29.30
2018-08-27T14:28:26.180Z,29.00
2018-08-27T14:30:53.745Z,28.90
2018-08-27T14:33:21.411Z,28.90
2018-08-27T14:35:50.493Z,28.60
2018-08-27T14:38:18.102Z,28.60
2018-08-27T14:40:45.759Z,28.20
2018-08-27T14:43:13.317Z,28.50
2018-08-27T14:45:41.857Z,29.20
2018-08-27T14:48:09.548Z,29.30
2018-08-27T14:50:37.021Z,29.20
2018-08-27T14:53:04.603Z,28.60
2018-08-27T14:55:33.209Z,28.30
2018-08-27T14:58:01.733Z,28.20
2018-08-27T15:00:29.344Z,28.20
2018-08-27T15:02:56.915Z,28.10
2018-08-27T15:05:24.497Z,27.60
2018-08-27T15:07:54.046Z,27.40
2018-08-27T15:10:22.259Z,27.40
2018-08-27T15:12:49.914Z,27.20
2018-08-27T15:15:17.618Z,27.20
2018-08-27T15:17:46.991Z,27.50
2018-08-27T15:20:15.409Z,26.90
2018-08-27T15:22:42.982Z,26.90
2018-08-27T15:25:13.043Z,26.50
2018-08-27T15:27:40.617Z,26.30
2018-08-27T15:30:09.845Z,25.90
2018-08-27T15:32:38.424Z,25.50
2018-08-27T15:35:07.027Z,25.50
2018-08-27T15:37:34.656Z,25.30
2018-08-27T15:40:02.225Z,25.00
2018-08-27T15:42:29.859Z,25.10
2018-08-27T15:44:57.413Z,24.90
2018-08-27T15:47:25.009Z,24.90
2018-08-27T15:49:52.628Z,25.00
2018-08-27T15:52:21.394Z,25.00
2018-08-27T15:54:49.005Z,25.00
2018-08-27T15:57:16.944Z,25.00
2018-08-27T15:59:46.489Z,24.90
2018-08-27T16:02:14.042Z,24.80
2018-08-27T16:04:41.677Z,24.70
2018-08-27T16:07:10.344Z,24.70
2018-08-27T16:09:37.890Z,24.70
2018-08-27T16:12:06.649Z,24.80
2018-08-27T16:14:34.178Z,24.90
2018-08-27T16:17:01.782Z,24.90
2018-08-27T16:19:29.428Z,24.90
2018-08-27T16:21:57.110Z,24.80
2018-08-27T16:24:24.737Z,24.60
2018-08-27T16:26:53.308Z,24.40
2018-08-27T16:29:21.683Z,24.20
2018-08-27T16:31:49.265Z,24.20
2018-08-27T16:34:16.829Z,24.00
2018-08-27T16:36:44.414Z,24.00
2018-08-27T16:39:12.001Z,23.90
2018-08-27T16:41:39.634Z,23.80
2018-08-27T16:44:07.190Z,23.70
2018-08-27T16:46:34.916Z,23.60
2018-08-27T16:49:02.471Z,23.50
2018-08-27T16:51:30.841Z,23.40
2018-08-27T16:53:59.240Z,23.30
2018-08-27T16:56:26.845Z,23.30
2018-08-27T16:58:56.142Z,23.30
2018-08-27T17:01:23.698Z,23.20
2018-08-27T17:03:51.348Z,23.20
2018-08-27T17:06:19.185Z,23.20
2018-08-27T17:08:47.713Z,23.20
2018-08-27T17:11:16.289Z,23.20
2018-08-27T17:13:43.829Z,23.20
2018-08-27T17:16:12.478Z,23.20
2018-08-27T17:18:40.029Z,23.00
2018-08-27T17:21:07.613Z,22.90
2018-08-27T17:23:35.194Z,22.90
2018-08-27T17:26:02.789Z,22.70
2018-08-27T17:28:31.411Z,22.70
2018-08-27T17:30:58.997Z,22.60
2018-08-27T17:33:26.567Z,22.50
2018-08-27T17:35:54.108Z,22.40
2018-08-27T17:38:21.658Z,22.40
2018-08-27T17:40:49.290Z,22.30
2018-08-27T17:43:16.849Z,22.20
2018-08-27T17:45:44.531Z,22.10
2018-08-27T17:48:12.026Z,22.00
2018-08-27T17:50:39.593Z,21.90
2018-08-27T17:53:07.912Z,21.80
2018-08-27T17:55:35.486Z,21.70
2018-08-27T17:58:03.074Z,21.60
2018-08-27T18:00:30.634Z,21.50
2018-08-27T18:02:58.974Z,21.30
2018-08-27T18:05:26.555Z,21.30
2018-08-27T18:07:54.879Z,21.20
2018-08-27T18:10:22.517Z,21.10
2018-08-27T18:12:50.098Z,21.10
2018-08-27T18:15:17.769Z,21.00
2018-08-27T18:17:45.330Z,20.90
2018-08-27T18:20:12.918Z,20.80
2018-08-27T18:22:40.563Z,20.70
2018-08-27T18:25:08.774Z,20.60
2018-08-27T18:27:36.414Z,20.60
2018-08-27T18:30:04.803Z,20.50
2018-08-27T18:32:33.351Z,20.40
2018-08-27T18:35:00.947Z,20.40
2018-08-27T18:37:29.282Z,20.30
2018-08-27T18:39:57.895Z,20.20
2018-08-27T18:42:26.268Z,20.10
2018-08-27T18:44:54.619Z,20.10
2018-08-27T18:47:22.200Z,20.10
2018-08-27T18:49:49.740Z,20.10
2018-08-27T18:52:27.673Z,20.00
2018-08-27T18:54:55.207Z,20.00
2018-08-27T18:57:23.541Z,19.80
2018-08-27T18:59:51.088Z,19.80
2018-08-27T19:02:18.654Z,19.80
2018-08-27T19:04:46.181Z,19.80
2018-08-27T19:07:13.714Z,19.90
2018-08-27T19:09:42.052Z,19.80
2018-08-27T19:12:09.593Z,19.80
2018-08-27T19:14:37.171Z,19.70
2018-08-27T19:17:04.698Z,19.70
2018-08-27T19:19:32.253Z,19.60
2018-08-27T19:21:59.777Z,19.60
2018-08-27T19:24:27.397Z,19.60
2018-08-27T19:26:54.924Z,19.60
2018-08-27T19:29:22.456Z,19.60
2018-08-27T19:31:50.806Z,19.60
2018-08-27T19:34:18.342Z,19.60
2018-08-27T19:36:47.018Z,19.50
2018-08-27T19:39:14.488Z,19.50
2018-08-27T19:41:42.045Z,19.40
2018-08-27T19:44:09.592Z,19.40
2018-08-27T19:46:37.126Z,19.40
2018-08-27T19:49:04.689Z,19.40
2018-08-27T19:51:32.265Z,19.30
2018-08-27T19:53:59.814Z,19.20
2018-08-27T19:56:27.373Z,19.10
2018-08-27T19:58:54.936Z,19.10
2018-08-27T20:01:22.466Z,18.90
2018-08-27T20:03:49.995Z,18.90
2018-08-27T20:06:17.660Z,18.90
2018-08-27T20:08:45.089Z,18.80
2018-08-27T20:11:12.647Z,18.70
2018-08-27T20:13:40.205Z,18.70
2018-08-27T20:16:08.695Z,18.70
2018-08-27T20:18:36.216Z,18.60
2018-08-27T20:21:03.777Z,18.60
2018-08-27T20:23:31.314Z,18.50
2018-08-27T20:25:58.892Z,18.40
2018-08-27T20:28:26.471Z,18.40
2018-08-27T20:30:54.005Z,18.30
2018-08-27T20:33:21.562Z,18.20
2018-08-27T20:35:49.112Z,18.20
2018-08-27T20:38:16.673Z,18.10
2018-08-27T20:40:44.198Z,18.20
2018-08-27T20:43:11.725Z,18.20
2018-08-27T20:45:39.320Z,18.20
2018-08-27T20:48:06.841Z,18.30
2018-08-27T20:50:34.398Z,18.30
2018-08-27T20:53:01.934Z,18.30
2018-08-27T20:55:29.489Z,18.40
2018-08-27T20:57:57.985Z,18.40
2018-08-27T21:00:26.526Z,18.50
2018-08-27T21:02:54.144Z,18.50
2018-08-27T21:05:22.605Z,18.50
2018-08-27T21:07:50.930Z,18.40
2018-08-27T21:10:18.465Z,18.30
2018-08-27T21:12:46.334Z,18.20
2018-08-27T21:15:13.904Z,18.30
2018-08-27T21:17:41.472Z,18.30
2018-08-27T21:20:09.051Z,18.10
2018-08-27T21:22:36.599Z,18.00
2018-08-27T21:25:04.162Z,18.00
2018-08-27T21:27:32.653Z,17.90
2018-08-27T21:30:00.189Z,17.80
2018-08-27T21:32:27.752Z,17.70
2018-08-27T21:34:55.281Z,17.60
2018-08-27T21:37:22.902Z,17.60
2018-08-27T21:39:50.408Z,17.70
2018-08-27T21:42:19.021Z,17.60
2018-08-27T21:44:46.553Z,17.60
2018-08-27T21:47:14.089Z,17.60
2018-08-27T21:49:41.661Z,17.60
2018-08-27T21:52:09.217Z,17.50
2018-08-27T21:54:36.772Z,17.50
2018-08-27T21:57:04.301Z,17.50
2018-08-27T21:59:31.853Z,17.50
2018-08-27T22:01:59.394Z,17.50
2018-08-27T22:04:26.957Z,17.40
2018-08-27T22:06:54.517Z,17.40
2018-08-27T22:09:22.069Z,17.30
2018-08-27T22:11:49.610Z,17.20
2018-08-27T22:14:17.177Z,17.10
2018-08-27T22:16:45.502Z,17.00
2018-08-27T22:19:13.024Z,17.00
2018-08-27T22:21:40.590Z,17.00
2018-08-27T22:24:08.145Z,17.10
2018-08-27T22:26:35.677Z,17.00
2018-08-27T22:29:04.001Z,17.00
2018-08-27T22:31:31.554Z,17.00
2018-08-27T22:33:59.081Z,17.00
2018-08-27T22:36:26.640Z,17.00
2018-08-27T22:38:54.253Z,17.00
2018-08-27T22:41:21.749Z,17.00
2018-08-27T22:43:49.305Z,17.00
2018-08-27T22:46:16.839Z,17.00
2018-08-27T22:48:45.173Z,17.00
2018-08-27T22:51:12.703Z,16.90
2018-08-27T22:53:41.200Z,16.90
2018-08-27T22:56:08.771Z,16.80
2018-08-27T22:58:36.304Z,16.80
2018-08-27T23:01:03.882Z,16.80
2018-08-27T23:06:25.098Z,16.80
2018-08-27T23:08:52.634Z,16.70
2018-08-27T23:11:20.189Z,16.70
2018-08-27T23:13:47.720Z,16.70
2018-08-27T23:16:16.022Z,16.70
2018-08-27T23:18:43.586Z,16.70
2018-08-27T23:21:11.121Z,16.80
2018-08-27T23:23:38.681Z,16.80
2018-08-27T23:26:06.386Z,16.80
2018-08-27T23:28:33.940Z,16.80
2018-08-27T23:31:01.474Z,16.80
2018-08-27T23:33:35.735Z,16.80
2018-08-27T23:36:03.265Z,16.70
2018-08-27T23:38:31.749Z,16.60
2018-08-27T23:40:59.309Z,16.60
2018-08-27T23:43:26.843Z,16.60
2018-08-27T23:45:54.406Z,16.60
2018-08-27T23:48:21.931Z,16.60
2018-08-27T23:50:51.141Z,16.50
2018-08-27T23:53:20.645Z,16.50
2018-08-27T23:55:48.201Z,16.60
2018-08-27T23:58:15.761Z,16.60
